createdAt,value
2023-10-12T00:00:49.490Z,18.00
2023-10-12T00:03:18.101Z,17.90
2023-10-12T00:05:47.491Z,17.90
2023-10-12T00:08:36.592Z,17.90
2023-10-12T00:11:08.105Z,17.90
2023-10-12T00:13:42.910Z,17.90
2023-10-12T00:16:11.063Z,17.90
2023-10-12T00:18:41.317Z,17.90
2023-10-12T00:21:16.585Z,17.90
2023-10-12T00:23:48.492Z,17.90
2023-10-12T00:26:19.014Z,17.80
2023-10-12T00:28:47.051Z,17.80
2023-10-12T00:31:21.136Z,17.80
2023-10-12T00:33:51.515Z,17.70
2023-10-12T00:36:23.710Z,17.60
2023-10-12T00:38:53.315Z,17.60
2023-10-12T00:41:26.311Z,17.60
2023-10-12T00:44:05.983Z,17.60
2023-10-12T00:46:33.024Z,17.60
2023-10-12T00:49:20.941Z,17.60
2023-10-12T00:51:53.709Z,17.60
2023-10-12T00:54:42.029Z,17.50
2023-10-12T00:57:12.494Z,17.50
2023-10-12T00:59:40.588Z,17.50
2023-10-12T01:02:16.908Z,17.50
2023-10-12T01:04:54.262Z,17.50
2023-10-12T01:07:26.571Z,17.50
2023-10-12T01:10:07.153Z,17.50
2023-10-12T01:12:36.427Z,17.50
2023-10-12T01:15:09.909Z,17.50
2023-10-12T01:17:42.205Z,17.40
2023-10-12T01:20:20.301Z,17.40
2023-10-12T01:22:49.355Z,17.40
2023-10-12T01:25:22.439Z,17.30
2023-10-12T01:27:54.532Z,17.30
2023-10-12T01:30:28.503Z,17.30
2023-10-12T01:32:59.042Z,17.30
2023-10-12T01:35:39.956Z,17.30
2023-10-12T01:38:09.672Z,17.30
2023-10-12T01:40:51.663Z,17.30
2023-10-12T01:43:30.610Z,17.30
2023-10-12T01:46:09.452Z,17.30
2023-10-12T01:48:38.997Z,17.30
2023-10-12T01:51:18.174Z,17.30
2023-10-12T01:53:47.270Z,17.40
2023-10-12T01:56:16.585Z,17.30
2023-10-12T01:58:50.290Z,17.30
2023-10-12T02:01:23.317Z,17.30
2023-10-12T02:03:56.555Z,17.30
2023-10-12T02:06:29.944Z,17.30
2023-10-12T02:09:09.679Z,17.20
2023-10-12T02:11:55.074Z,17.20
2023-10-12T02:14:40.695Z,17.10
2023-10-12T02:17:11.609Z,17.10
2023-10-12T02:19:44.834Z,17.10
2023-10-12T02:22:26.487Z,17.10
2023-10-12T02:25:01.387Z,17.10
2023-10-12T02:27:29.543Z,17.00
2023-10-12T02:29:57.852Z,17.00
2023-10-12T02:32:26.307Z,17.00
2023-10-12T02:35:01.583Z,16.90
2023-10-12T02:37:29.755Z,16.90
2023-10-12T02:39:59.846Z,16.90
2023-10-12T02:42:42.305Z,16.90
2023-10-12T02:45:14.352Z,16.90
2023-10-12T02:47:43.934Z,16.90
2023-10-12T02:50:13.777Z,16.90
2023-10-12T02:52:48.146Z,16.80
2023-10-12T02:55:22.843Z,16.80
2023-10-12T02:58:01.477Z,16.70
2023-10-12T03:00:34.844Z,16.70
2023-10-12T03:03:30.194Z,16.80
2023-10-12T03:06:02.421Z,16.70
2023-10-12T03:08:47.999Z,16.80
2023-10-12T03:11:17.089Z,16.80
2023-10-12T03:13:56.205Z,16.80
2023-10-12T03:16:25.606Z,16.80
2023-10-12T03:19:18.813Z,16.80
2023-10-12T03:21:50.959Z,16.80
2023-10-12T03:24:22.334Z,16.80
2023-10-12T03:27:04.194Z,16.80
2023-10-12T03:29:33.868Z,16.80
2023-10-12T03:32:06.222Z,16.70
2023-10-12T03:34:37.612Z,16.70
2023-10-12T03:37:14.521Z,16.70
2023-10-12T03:40:00.923Z,16.70
2023-10-12T03:42:28.858Z,16.60
2023-10-12T03:45:09.776Z,16.60
2023-10-12T03:47:57.199Z,16.60
2023-10-12T03:50:24.333Z,16.70
2023-10-12T03:52:54.815Z,16.70
2023-10-12T03:55:28.814Z,16.70
2023-10-12T03:58:01.891Z,16.70
2023-10-12T04:00:43.890Z,16.70
2023-10-12T04:03:19.669Z,16.70
2023-10-12T04:05:52.809Z,16.70
2023-10-12T04:08:40.359Z,16.70
2023-10-12T04:11:19.539Z,16.70
2023-10-12T04:13:47.689Z,16.60
2023-10-12T04:16:18.850Z,16.60
2023-10-12T04:18:51.825Z,16.60
2023-10-12T04:21:28.419Z,16.60
2023-10-12T04:23:59.169Z,16.60
2023-10-12T04:26:39.670Z,16.60
2023-10-12T04:29:15.043Z,16.60
2023-10-12T04:31:45.763Z,16.50
2023-10-12T04:34:27.679Z,16.50
2023-10-12T04:37:11.377Z,16.50
2023-10-12T04:39:38.804Z,16.50
2023-10-12T04:42:21.776Z,16.50
2023-10-12T04:45:07.286Z,16.50
2023-10-12T04:47:36.855Z,16.50
2023-10-12T04:50:06.951Z,16.50
2023-10-12T04:52:34.658Z,16.50
2023-10-12T04:55:22.111Z,16.50
2023-10-12T04:58:01.183Z,16.50
2023-10-12T05:00:49.304Z,16.50
2023-10-12T05:03:26.643Z,16.50
2023-10-12T05:05:58.732Z,16.50
2023-10-12T05:08:34.499Z,16.50
2023-10-12T05:11:02.046Z,16.50
2023-10-12T05:13:32.545Z,16.50
2023-10-12T05:16:06.823Z,16.50
2023-10-12T05:18:35.578Z,16.50
2023-10-12T05:21:06.567Z,16.50
2023-10-12T05:23:34.642Z,16.60
2023-10-12T05:26:01.692Z,16.60
2023-10-12T05:28:38.381Z,16.60
2023-10-12T05:31:08.597Z,16.60
2023-10-12T05:33:36.685Z,16.60
2023-10-12T05:36:11.373Z,16.60
2023-10-12T05:38:52.989Z,16.60
2023-10-12T05:41:33.904Z,16.60
2023-10-12T05:44:09.724Z,16.60
2023-10-12T05:46:42.155Z,16.60
2023-10-12T05:49:15.123Z,16.60
2023-10-12T05:51:46.853Z,16.70
2023-10-12T05:54:21.140Z,16.70
2023-10-12T05:56:53.597Z,16.70
2023-10-12T05:59:21.433Z,16.70
2023-10-12T06:01:51.687Z,16.70
2023-10-12T06:04:22.071Z,16.70
2023-10-12T06:06:53.508Z,16.70
2023-10-12T06:09:22.656Z,16.70
2023-10-12T06:11:54.888Z,16.70
2023-10-12T06:14:25.563Z,16.70
2023-10-12T06:17:03.507Z,16.70
2023-10-12T06:19:36.215Z,16.80
2023-10-12T06:22:15.109Z,16.80
2023-10-12T06:24:46.008Z,16.80
2023-10-12T06:27:22.306Z,16.80
2023-10-12T06:29:56.467Z,16.90
2023-10-12T06:32:34.327Z,16.80
2023-10-12T06:35:08.584Z,16.90
2023-10-12T06:37:51.254Z,16.90
2023-10-12T06:40:25.686Z,17.00
2023-10-12T06:43:12.316Z,16.90
2023-10-12T06:45:50.363Z,17.00
2023-10-12T06:48:31.616Z,17.00
2023-10-12T06:51:04.637Z,17.00
2023-10-12T06:53:36.922Z,17.00
2023-10-12T06:56:21.598Z,17.10
2023-10-12T06:59:10.925Z,17.10
2023-10-12T07:01:47.868Z,17.10
2023-10-12T07:04:18.494Z,17.10
2023-10-12T07:07:00.040Z,17.10
2023-10-12T07:09:41.770Z,17.10
2023-10-12T07:12:16.145Z,17.10
2023-10-12T07:14:48.806Z,17.10
2023-10-12T07:17:16.753Z,17.10
2023-10-12T07:19:51.446Z,17.20
2023-10-12T07:22:21.952Z,17.20
2023-10-12T07:24:58.543Z,17.20
2023-10-12T07:27:25.992Z,17.20
2023-10-12T07:30:16.452Z,17.30
2023-10-12T07:32:56.362Z,17.30
2023-10-12T07:35:36.148Z,17.30
2023-10-12T07:38:13.857Z,17.40
2023-10-12T07:41:14.363Z,17.40
2023-10-12T07:43:43.493Z,17.40
2023-10-12T07:46:26.430Z,17.40
2023-10-12T07:49:11.988Z,17.50
2023-10-12T07:52:00.497Z,17.50
2023-10-12T07:54:56.152Z,17.50
2023-10-12T07:57:23.959Z,17.50
2023-10-12T07:59:56.838Z,17.50
2023-10-12T08:02:46.464Z,17.50
2023-10-12T08:05:26.173Z,17.50
2023-10-12T08:08:02.585Z,17.50
2023-10-12T08:10:40.676Z,17.40
2023-10-12T08:13:18.030Z,17.40
2023-10-12T08:15:55.766Z,17.40
2023-10-12T08:18:44.435Z,17.40
2023-10-12T08:21:33.444Z,17.40
2023-10-12T08:24:21.870Z,17.40
2023-10-12T08:26:49.610Z,17.40
2023-10-12T08:29:23.531Z,17.40
2023-10-12T08:32:13.656Z,17.30
2023-10-12T08:34:43.722Z,17.30
2023-10-12T08:37:14.901Z,17.40
2023-10-12T08:39:52.056Z,17.40
2023-10-12T08:42:23.943Z,17.40
2023-10-12T08:44:52.606Z,17.40
2023-10-12T08:47:34.393Z,17.40
2023-10-12T08:50:20.573Z,17.30
2023-10-12T08:52:52.852Z,17.40
2023-10-12T08:55:25.366Z,17.40
2023-10-12T08:58:13.174Z,17.40
2023-10-12T09:01:02.490Z,17.40
2023-10-12T09:03:47.916Z,17.50
2023-10-12T09:06:36.177Z,17.50
2023-10-12T09:09:10.750Z,17.50
2023-10-12T09:11:39.988Z,17.60
2023-10-12T09:14:17.460Z,17.70
2023-10-12T09:16:57.651Z,17.70
2023-10-12T09:19:35.201Z,17.70
2023-10-12T09:22:28.325Z,17.80
2023-10-12T09:25:01.106Z,17.90
2023-10-12T09:27:37.574Z,17.90
2023-10-12T09:30:06.900Z,18.00
2023-10-12T09:32:36.919Z,18.20
2023-10-12T09:35:20.955Z,18.30
2023-10-12T09:37:53.758Z,18.40
2023-10-12T09:40:40.139Z,18.40
2023-10-12T09:43:16.955Z,18.40
2023-10-12T09:45:47.548Z,18.30
2023-10-12T09:48:25.754Z,18.30
2023-10-12T09:50:57.633Z,18.20
2023-10-12T09:53:45.096Z,18.10
2023-10-12T09:56:17.615Z,18.00
2023-10-12T09:58:54.152Z,18.00
2023-10-12T10:01:50.940Z,17.90
2023-10-12T10:04:36.193Z,17.90
2023-10-12T10:07:11.037Z,17.80
2023-10-12T10:09:39.526Z,17.90
2023-10-12T10:12:08.976Z,17.80
2023-10-12T10:14:38.890Z,17.90
2023-10-12T10:17:17.414Z,17.80
2023-10-12T10:19:53.209Z,17.70
2023-10-12T10:22:23.781Z,17.70
2023-10-12T10:24:59.305Z,17.70
2023-10-12T10:27:35.901Z,17.70
2023-10-12T10:30:38.295Z,17.70
2023-10-12T10:33:18.920Z,17.70
2023-10-12T10:36:12.055Z,17.70
2023-10-12T10:38:52.580Z,17.70
2023-10-12T10:41:46.841Z,17.70
2023-10-12T10:44:18.765Z,17.70
2023-10-12T10:46:55.917Z,17.70
2023-10-12T10:49:33.587Z,17.70
2023-10-12T10:52:07.592Z,17.70
2023-10-12T10:54:39.419Z,17.70
2023-10-12T10:57:26.293Z,17.70
2023-10-12T10:59:53.883Z,17.80
2023-10-12T11:02:22.459Z,17.90
2023-10-12T11:04:56.314Z,17.90
2023-10-12T11:07:23.741Z,17.90
2023-10-12T11:09:53.069Z,17.90
2023-10-12T11:12:24.809Z,17.90
2023-10-12T11:15:02.037Z,18.00
2023-10-12T11:18:09.075Z,18.00
2023-10-12T11:20:58.752Z,18.10
2023-10-12T11:23:32.710Z,18.20
2023-10-12T11:26:18.785Z,18.30
2023-10-12T11:29:01.787Z,18.30
2023-10-12T11:31:34.498Z,18.40
2023-10-12T11:34:11.204Z,18.40
2023-10-12T11:36:39.915Z,18.40
2023-10-12T11:39:18.155Z,18.40
2023-10-12T11:42:05.914Z,18.40
2023-10-12T11:44:43.854Z,18.40
2023-10-12T11:47:16.315Z,18.40
2023-10-12T11:50:00.390Z,18.30
2023-10-12T11:52:35.797Z,18.20
2023-10-12T11:55:22.721Z,18.20
2023-10-12T11:57:56.287Z,18.10
2023-10-12T12:00:38.167Z,18.00
2023-10-12T12:03:11.037Z,18.00
2023-10-12T12:05:39.013Z,18.00
2023-10-12T12:08:16.963Z,17.90
2023-10-12T12:10:45.706Z,17.90
2023-10-12T12:13:16.717Z,17.90
2023-10-12T12:15:50.505Z,17.90
2023-10-12T12:18:20.562Z,17.90
2023-10-12T12:20:49.627Z,17.80
2023-10-12T12:23:21.139Z,17.80
2023-10-12T12:25:48.288Z,17.90
2023-10-12T12:28:15.869Z,17.90
2023-10-12T12:30:59.763Z,17.90
2023-10-12T12:33:27.604Z,17.90
2023-10-12T12:36:01.598Z,18.00
2023-10-12T12:38:52.369Z,18.00
2023-10-12T12:41:25.652Z,18.10
2023-10-12T12:43:54.806Z,18.10
2023-10-12T12:46:24.977Z,18.20
2023-10-12T12:49:04.356Z,18.20
2023-10-12T12:51:31.643Z,18.20
2023-10-12T12:54:03.534Z,18.20
2023-10-12T12:56:30.778Z,18.30
2023-10-12T12:58:57.762Z,18.40
2023-10-12T13:01:25.717Z,18.50
2023-10-12T13:03:56.753Z,18.50
2023-10-12T13:06:25.324Z,18.60
2023-10-12T13:08:53.827Z,18.70
2023-10-12T13:11:21.686Z,18.70
2023-10-12T13:13:50.143Z,18.70
2023-10-12T13:16:18.180Z,18.70
2023-10-12T13:18:49.363Z,18.70
2023-10-12T13:21:23.592Z,18.70
2023-10-12T13:23:53.158Z,18.70
2023-10-12T13:26:24.196Z,18.70
2023-10-12T13:28:53.061Z,18.70
2023-10-12T13:31:20.214Z,18.80
2023-10-12T13:33:49.035Z,18.90
2023-10-12T13:36:22.863Z,19.00
2023-10-12T13:38:50.109Z,19.10
2023-10-12T13:41:18.733Z,19.20
2023-10-12T13:43:49.745Z,19.30
2023-10-12T13:46:20.021Z,19.30
2023-10-12T13:48:50.599Z,19.30
2023-10-12T13:51:23.568Z,19.30
2023-10-12T13:53:54.581Z,19.30
2023-10-12T13:56:25.511Z,19.30
2023-10-12T13:58:59.996Z,19.30
2023-10-12T14:01:37.937Z,19.40
2023-10-12T14:04:24.430Z,19.40
2023-10-12T14:07:02.744Z,19.40
2023-10-12T14:09:33.640Z,19.50
2023-10-12T14:12:06.986Z,19.50
2023-10-12T14:14:40.252Z,19.60
2023-10-12T14:17:09.771Z,19.70
2023-10-12T14:19:40.766Z,19.70
2023-10-12T14:22:11.038Z,19.70
2023-10-12T14:24:39.079Z,19.70
2023-10-12T14:27:08.429Z,19.60
2023-10-12T14:29:37.449Z,19.60
2023-10-12T14:32:04.887Z,19.60
2023-10-12T14:34:35.446Z,19.60
2023-10-12T14:37:03.310Z,19.70
2023-10-12T14:39:33.088Z,19.70
2023-10-12T14:42:01.262Z,19.80
2023-10-12T14:44:30.515Z,19.70
2023-10-12T14:47:06.425Z,19.70
2023-10-12T14:49:34.927Z,19.70
2023-10-12T14:52:07.568Z,19.70
2023-10-12T14:54:34.757Z,19.70
2023-10-12T14:57:06.299Z,19.60
2023-10-12T14:59:35.555Z,19.60
2023-10-12T15:02:11.270Z,19.50
2023-10-12T15:04:43.512Z,19.50
2023-10-12T15:07:14.341Z,19.50
2023-10-12T15:09:50.171Z,19.40
2023-10-12T15:12:20.896Z,19.40
2023-10-12T15:14:55.454Z,19.40
2023-10-12T15:17:25.714Z,19.40
2023-10-12T15:19:54.283Z,19.40
2023-10-12T15:22:24.995Z,19.40
2023-10-12T15:24:53.755Z,19.30
2023-10-12T15:27:20.875Z,19.30
2023-10-12T15:29:54.070Z,19.30
2023-10-12T15:32:21.583Z,19.30
2023-10-12T15:34:51.738Z,19.30
2023-10-12T15:37:25.139Z,19.30
2023-10-12T15:39:52.895Z,19.30
2023-10-12T15:42:20.002Z,19.30
2023-10-12T15:44:47.042Z,19.20
2023-10-12T15:47:17.902Z,19.20
2023-10-12T15:49:49.686Z,19.20
2023-10-12T15:52:19.947Z,19.10
2023-10-12T15:54:50.211Z,19.10
2023-10-12T15:57:20.285Z,19.10
2023-10-12T15:59:48.429Z,19.00
2023-10-12T16:02:15.644Z,19.00
2023-10-12T16:04:46.896Z,18.90
2023-10-12T16:07:18.663Z,19.00
2023-10-12T16:09:48.347Z,19.00
2023-10-12T16:12:22.034Z,18.90
2023-10-12T16:14:56.608Z,18.90
2023-10-12T16:17:24.836Z,18.90
2023-10-12T16:19:55.458Z,18.90
2023-10-12T16:22:26.238Z,18.90
2023-10-12T16:24:54.824Z,19.00
2023-10-12T16:27:25.839Z,19.00
2023-10-12T16:30:00.684Z,19.00
2023-10-12T16:32:28.740Z,19.00
2023-10-12T16:35:00.478Z,18.90
2023-10-12T16:37:28.612Z,18.90
2023-10-12T16:39:55.785Z,18.90
2023-10-12T16:42:24.130Z,18.90
2023-10-12T16:44:54.296Z,18.80
2023-10-12T16:47:24.408Z,18.80
2023-10-12T16:49:54.543Z,18.80
2023-10-12T16:52:23.724Z,18.80
2023-10-12T16:54:54.014Z,18.80
2023-10-12T16:57:25.490Z,18.80
2023-10-12T16:59:54.568Z,18.70
2023-10-12T17:02:23.256Z,18.80
2023-10-12T17:04:56.235Z,18.80
2023-10-12T17:07:27.025Z,18.70
2023-10-12T17:09:57.397Z,18.80
2023-10-12T17:12:27.060Z,18.70
2023-10-12T17:14:57.198Z,18.70
2023-10-12T17:17:24.329Z,18.70
2023-10-12T17:19:55.608Z,18.80
2023-10-12T17:22:25.830Z,18.70
2023-10-12T17:24:56.051Z,18.80
2023-10-12T17:27:23.201Z,18.70
2023-10-12T17:29:50.915Z,18.70
2023-10-12T17:32:27.181Z,18.70
2023-10-12T17:34:57.331Z,18.70
2023-10-12T17:37:25.552Z,18.70
2023-10-12T17:39:55.776Z,18.70
2023-10-12T17:42:32.038Z,18.70
2023-10-12T17:45:10.370Z,18.60
2023-10-12T17:47:41.220Z,18.50
2023-10-12T17:50:15.595Z,18.50
2023-10-12T17:52:47.676Z,18.50
2023-10-12T17:55:18.053Z,18.50
2023-10-12T17:57:47.844Z,18.50
2023-10-12T18:00:24.898Z,18.40
2023-10-12T18:02:53.274Z,18.40
2023-10-12T18:05:22.436Z,18.30
2023-10-12T18:07:56.320Z,18.30
2023-10-12T18:10:27.052Z,18.30
2023-10-12T18:12:55.358Z,18.30
2023-10-12T18:15:27.030Z,18.30
2023-10-12T18:17:55.369Z,18.30
2023-10-12T18:20:26.101Z,18.20
2023-10-12T18:22:56.615Z,18.20
2023-10-12T18:25:26.430Z,18.20
2023-10-12T18:27:56.698Z,18.20
2023-10-12T18:30:23.845Z,18.20
2023-10-12T18:33:02.119Z,18.20
2023-10-12T18:35:29.893Z,18.20
2023-10-12T18:38:00.075Z,18.20
2023-10-12T18:40:30.556Z,18.10
2023-10-12T18:42:57.643Z,18.10
2023-10-12T18:45:27.868Z,18.10
2023-10-12T18:47:58.240Z,18.10
2023-10-12T18:50:28.161Z,18.10
2023-10-12T18:52:57.241Z,18.10
2023-10-12T18:55:24.823Z,18.10
2023-10-12T18:57:57.884Z,18.10
2023-10-12T19:00:24.861Z,18.00
2023-10-12T19:02:55.621Z,18.00
2023-10-12T19:05:26.022Z,18.00
2023-10-12T19:07:53.803Z,18.00
2023-10-12T19:10:20.956Z,18.00
2023-10-12T19:12:48.064Z,18.00
2023-10-12T19:15:18.218Z,18.00
2023-10-12T19:17:45.286Z,18.00
2023-10-12T19:20:12.797Z,18.00
2023-10-12T19:22:44.411Z,18.00
2023-10-12T19:25:14.593Z,18.00
2023-10-12T19:27:45.694Z,18.00
2023-10-12T19:30:14.919Z,18.00
2023-10-12T19:32:41.976Z,18.00
2023-10-12T19:35:12.864Z,18.00
2023-10-12T19:37:42.182Z,18.00
2023-10-12T19:40:10.998Z,18.00
2023-10-12T19:42:43.524Z,18.10
2023-10-12T19:45:13.740Z,18.10
2023-10-12T19:47:43.928Z,18.10
2023-10-12T19:50:14.424Z,18.10
2023-10-12T19:52:44.806Z,18.00
2023-10-12T19:55:12.905Z,18.00
2023-10-12T19:57:44.204Z,18.00
2023-10-12T20:00:25.542Z,18.00
2023-10-12T20:03:02.566Z,18.00
2023-10-12T20:05:39.541Z,18.00
2023-10-12T20:08:13.402Z,18.00
2023-10-12T20:10:48.005Z,18.00
2023-10-12T20:13:20.830Z,18.00
2023-10-12T20:15:50.047Z,18.00
2023-10-12T20:18:17.615Z,18.00
2023-10-12T20:20:48.887Z,18.00
2023-10-12T20:23:16.536Z,18.00
2023-10-12T20:25:48.864Z,18.00
2023-10-12T20:28:19.882Z,18.00
2023-10-12T20:30:55.076Z,18.00
2023-10-12T20:33:23.704Z,18.00
2023-10-12T20:36:04.086Z,18.00
2023-10-12T20:38:34.405Z,18.00
2023-10-12T20:41:05.569Z,17.90
2023-10-12T20:43:35.957Z,17.90
2023-10-12T20:46:11.631Z,17.90
2023-10-12T20:48:42.135Z,17.90
2023-10-12T20:51:09.808Z,17.90
2023-10-12T20:53:39.988Z,17.90
2023-10-12T20:56:10.567Z,17.90
2023-10-12T20:58:46.897Z,17.90
2023-10-12T21:01:26.174Z,17.90
2023-10-12T21:03:58.834Z,17.90
2023-10-12T21:06:29.219Z,17.90
2023-10-12T21:09:16.178Z,17.90
2023-10-12T21:11:47.368Z,17.90
2023-10-12T21:14:27.897Z,17.80
2023-10-12T21:17:08.308Z,17.80
2023-10-12T21:19:55.285Z,17.90
2023-10-12T21:22:29.055Z,17.80
2023-10-12T21:24:59.466Z,17.80
2023-10-12T21:27:38.468Z,17.80
2023-10-12T21:30:07.976Z,17.80
2023-10-12T21:32:46.474Z,17.80
2023-10-12T21:35:22.725Z,17.80
2023-10-12T21:37:53.110Z,17.80
2023-10-12T21:40:31.688Z,17.80
2023-10-12T21:43:08.427Z,17.80
2023-10-12T21:45:49.084Z,17.80
2023-10-12T21:48:19.715Z,17.80
2023-10-12T21:50:52.560Z,17.80
2023-10-12T21:53:19.659Z,17.80
2023-10-12T21:55:59.207Z,17.80
2023-10-12T21:58:27.788Z,17.80
2023-10-12T22:01:08.985Z,17.80
2023-10-12T22:03:37.119Z,17.80
2023-10-12T22:06:04.296Z,17.80
2023-10-12T22:08:37.847Z,17.90
2023-10-12T22:11:10.355Z,17.90
2023-10-12T22:13:49.959Z,17.90
2023-10-12T22:16:32.275Z,17.80
2023-10-12T22:19:01.419Z,17.90
2023-10-12T22:21:31.486Z,17.90
2023-10-12T22:23:58.525Z,17.90
2023-10-12T22:26:28.568Z,17.80
2023-10-12T22:28:55.695Z,17.90
2023-10-12T22:31:22.978Z,17.90
2023-10-12T22:33:50.293Z,17.80
2023-10-12T22:36:21.315Z,17.80
2023-10-12T22:38:48.745Z,17.90
2023-10-12T22:41:17.768Z,17.90
2023-10-12T22:43:46.795Z,17.90
2023-10-12T22:46:17.291Z,17.90
2023-10-12T22:48:46.467Z,17.90
2023-10-12T22:51:14.934Z,17.90
2023-10-12T22:53:41.994Z,17.90
2023-10-12T22:56:12.864Z,17.90
2023-10-12T22:58:39.953Z,17.80
2023-10-12T23:01:08.093Z,17.90
2023-10-12T23:03:37.945Z,17.90
2023-10-12T23:06:08.183Z,17.80
2023-10-12T23:08:39.793Z,17.80
2023-10-12T23:11:19.540Z,17.80
2023-10-12T23:13:54.353Z,17.80
2023-10-12T23:16:33.734Z,17.80
2023-10-12T23:19:04.587Z,17.70
2023-10-12T23:21:34.681Z,17.70
2023-10-12T23:24:13.318Z,17.70
2023-10-12T23:26:40.730Z,17.70
2023-10-12T23:29:10.831Z,17.70
2023-10-12T23:31:42.292Z,17.70
2023-10-12T23:34:23.969Z,17.60
2023-10-12T23:36:59.900Z,17.60
2023-10-12T23:39:30.190Z,17.60
2023-10-12T23:42:08.733Z,17.60
2023-10-12T23:44:37.335Z,17.60
2023-10-12T23:47:25.645Z,17.60
2023-10-12T23:50:11.786Z,17.60
2023-10-12T23:52:56.212Z,17.60
2023-10-12T23:55:31.575Z,17.60
2023-10-12T23:58:23.889Z,17.60
